createdAt,value
2016-11-18T00:00:07.585Z,991.06
2016-11-18T00:00:48.058Z,991.13
2016-11-18T00:01:28.521Z,991.16
2016-11-18T00:02:10.051Z,991.18
2016-11-18T00:02:50.520Z,991.08
2016-11-18T00:03:31.044Z,990.84
2016-11-18T00:04:11.553Z,991.24
2016-11-18T00:04:51.986Z,990.92
2016-11-18T00:05:32.497Z,990.88
2016-11-18T00:06:12.979Z,990.93
2016-11-18T00:06:53.463Z,990.88
2016-11-18T00:07:34.772Z,990.89
2016-11-18T00:08:15.312Z,990.77
2016-11-18T00:08:55.750Z,990.83
2016-11-18T00:09:36.228Z,990.55
2016-11-18T00:10:16.728Z,990.43
2016-11-18T00:10:57.198Z,990.38
2016-11-18T00:11:37.701Z,990.24
2016-11-18T00:12:18.185Z,990.34
2016-11-18T00:12:58.727Z,990.45
2016-11-18T00:13:39.175Z,990.4
2016-11-18T00:14:19.664Z,990.31
2016-11-18T00:15:01.033Z,990.47
2016-11-18T00:15:41.513Z,990.83
2016-11-18T00:16:22.016Z,990.73
2016-11-18T00:17:02.479Z,990.58
2016-11-18T00:17:42.992Z,990.91
2016-11-18T00:18:23.509Z,990.68
2016-11-18T00:19:04.063Z,990.87
2016-11-18T00:19:44.511Z,990.85
2016-11-18T00:20:25.012Z,991.04
2016-11-18T00:21:05.469Z,990.91
2016-11-18T00:21:45.985Z,990.87
2016-11-18T00:22:26.486Z,990.86
2016-11-18T00:23:08.883Z,990.81
2016-11-18T00:23:49.339Z,990.71
2016-11-18T00:24:29.827Z,990.85
2016-11-18T00:25:10.386Z,990.81
2016-11-18T00:25:50.789Z,990.75
2016-11-18T00:26:32.151Z,991.01
2016-11-18T00:27:12.612Z,990.98
2016-11-18T00:27:53.113Z,990.91
2016-11-18T00:28:33.591Z,990.91
2016-11-18T00:29:14.067Z,990.92
2016-11-18T00:29:54.540Z,990.93
2016-11-18T00:30:35.042Z,990.87
2016-11-18T00:31:15.493Z,991.12
2016-11-18T00:31:55.975Z,991.08
2016-11-18T00:32:36.448Z,990.89
2016-11-18T00:33:16.974Z,990.88
2016-11-18T00:33:57.436Z,990.94
2016-11-18T00:34:37.898Z,991.03
2016-11-18T00:35:18.383Z,990.95
2016-11-18T00:35:58.878Z,991.24
2016-11-18T00:36:39.475Z,991.1
2016-11-18T00:37:19.945Z,991.15
2016-11-18T00:38:00.434Z,991.02
2016-11-18T00:38:40.928Z,991.53
2016-11-18T00:39:21.405Z,991.22
2016-11-18T00:40:02.519Z,991.29
2016-11-18T00:40:43.028Z,991.24
2016-11-18T00:41:23.523Z,991.34
2016-11-18T00:42:04.100Z,991.42
2016-11-18T00:42:44.572Z,991.29
2016-11-18T00:43:25.083Z,991.33
2016-11-18T00:44:05.601Z,991.14
2016-11-18T00:44:46.024Z,991.37
2016-11-18T00:45:26.520Z,991.21
2016-11-18T00:46:06.985Z,991.13
2016-11-18T00:46:47.475Z,991.1
2016-11-18T00:47:27.990Z,991.16
2016-11-18T00:48:08.496Z,991.13
2016-11-18T00:48:49.047Z,990.89
2016-11-18T00:49:29.507Z,991.04
2016-11-18T00:50:09.941Z,991.11
2016-11-18T00:50:50.467Z,990.96
2016-11-18T00:51:30.883Z,990.86
2016-11-18T00:52:11.381Z,991.16
2016-11-18T00:52:51.853Z,990.83
2016-11-18T00:53:32.323Z,990.79
2016-11-18T00:54:12.817Z,990.81
2016-11-18T00:54:53.314Z,990.96
2016-11-18T00:55:33.821Z,990.85
2016-11-18T00:56:14.242Z,990.74
2016-11-18T00:56:54.720Z,990.68
2016-11-18T00:57:35.835Z,990.72
2016-11-18T00:58:16.307Z,990.57
2016-11-18T00:58:56.779Z,990.49
2016-11-18T00:59:37.268Z,990.85
2016-11-18T01:00:17.769Z,990.65
2016-11-18T01:00:58.223Z,990.58
2016-11-18T01:01:38.831Z,990.71
2016-11-18T01:02:19.282Z,990.84
2016-11-18T01:02:59.781Z,990.76
2016-11-18T01:03:40.236Z,990.82
2016-11-18T01:04:20.711Z,990.79
2016-11-18T01:05:01.204Z,990.8
2016-11-18T01:05:41.685Z,991.01
2016-11-18T01:06:22.676Z,990.75
2016-11-18T01:07:03.145Z,990.8
2016-11-18T01:07:43.570Z,991.08
2016-11-18T01:08:24.119Z,990.75
2016-11-18T01:10:44.121Z,990.74
2016-11-18T01:11:32.961Z,990.64
2016-11-18T01:12:20.956Z,990.69
2016-11-18T01:13:09.711Z,990.74
2016-11-18T01:13:58.123Z,990.5
2016-11-18T01:14:46.802Z,990.34
2016-11-18T01:15:35.757Z,990.54
2016-11-18T01:16:24.030Z,990.62
2016-11-18T01:17:12.582Z,990.49
2016-11-18T01:18:01.513Z,990.38
2016-11-18T01:18:50.393Z,990.5
2016-11-18T01:19:38.412Z,990.46
2016-11-18T01:20:27.400Z,990.47
2016-11-18T01:21:16.548Z,990.48
2016-11-18T01:22:04.692Z,990.54
2016-11-18T01:22:53.535Z,990.53
2016-11-18T01:23:41.958Z,990.53
2016-11-18T01:24:30.744Z,990.54
2016-11-18T01:25:19.551Z,990.45
2016-11-18T01:26:08.315Z,990.64
2016-11-18T01:26:57.106Z,990.63
2016-11-18T01:27:45.544Z,990.57
2016-11-18T01:28:34.077Z,990.68
2016-11-18T01:29:22.880Z,990.61
2016-11-18T01:30:11.317Z,990.96
2016-11-18T01:31:00.254Z,990.66
2016-11-18T01:31:48.316Z,990.75
2016-11-18T01:32:37.307Z,990.62
2016-11-18T01:33:25.409Z,990.59
2016-11-18T01:34:12.479Z,990.71
2016-11-18T01:35:02.285Z,990.71
2016-11-18T01:35:51.231Z,990.64
2016-11-18T01:36:39.898Z,990.76
2016-11-18T01:37:28.913Z,990.7
2016-11-18T01:40:08.321Z,990.69
2016-11-18T01:40:56.986Z,990.57
2016-11-18T01:41:46.048Z,990.56
2016-11-18T01:42:34.198Z,990.48
2016-11-18T01:43:22.694Z,990.44
2016-11-18T01:44:12.050Z,990.35
2016-11-18T01:45:00.510Z,990.44
2016-11-18T01:45:48.697Z,990.44
2016-11-18T01:46:37.254Z,990.42
2016-11-18T01:47:25.712Z,990.44
2016-11-18T01:48:14.380Z,990.32
2016-11-18T01:49:03.381Z,990.16
2016-11-18T01:49:52.046Z,990.04
2016-11-18T01:50:39.983Z,990.07
2016-11-18T01:51:28.691Z,990.01
2016-11-18T01:52:17.514Z,990.06
2016-11-18T01:53:05.915Z,990.11
2016-11-18T01:53:54.944Z,990.12
2016-11-18T01:54:43.001Z,990.16
2016-11-18T01:55:31.827Z,990.17
2016-11-18T01:56:20.247Z,990.24
2016-11-18T01:57:08.291Z,990.38
2016-11-18T01:57:55.096Z,990.49
2016-11-18T01:58:44.035Z,990.53
2016-11-18T01:59:32.183Z,990.84
2016-11-18T02:00:20.558Z,990.98
2016-11-18T02:01:09.449Z,990.95
2016-11-18T02:01:58.087Z,990.79
2016-11-18T02:02:47.030Z,990.79
2016-11-18T02:03:35.576Z,990.69
2016-11-18T02:04:24.051Z,990.7
2016-11-18T02:05:12.544Z,990.79
2016-11-18T02:06:01.282Z,990.81
2016-11-18T02:06:49.733Z,990.83
2016-11-18T02:07:38.316Z,990.85
2016-11-18T02:08:27.074Z,990.71
2016-11-18T02:09:15.333Z,990.69
2016-11-18T02:10:04.203Z,990.78
2016-11-18T02:10:52.749Z,990.75
2016-11-18T02:11:41.329Z,990.69
2016-11-18T02:12:24.554Z,990.79
2016-11-18T02:13:05.012Z,990.71
2016-11-18T02:13:45.515Z,990.73
2016-11-18T02:14:25.955Z,990.7
2016-11-18T02:15:06.442Z,990.57
2016-11-18T02:15:46.910Z,990.59
2016-11-18T02:16:27.382Z,990.6
2016-11-18T02:17:07.876Z,990.7
2016-11-18T02:17:48.319Z,990.7
2016-11-18T02:18:28.813Z,990.96
2016-11-18T02:19:09.299Z,990.77
2016-11-18T02:19:49.795Z,990.91
2016-11-18T02:20:30.238Z,990.97
2016-11-18T02:21:10.727Z,990.82
2016-11-18T02:21:51.248Z,990.94
2016-11-18T02:22:31.728Z,990.91
2016-11-18T02:23:12.238Z,990.99
2016-11-18T02:23:52.648Z,990.87
2016-11-18T02:24:33.137Z,990.88
2016-11-18T02:25:13.633Z,990.77
2016-11-18T02:25:55.062Z,990.75
2016-11-18T02:26:35.535Z,990.83
2016-11-18T02:27:16.024Z,990.73
2016-11-18T02:27:56.492Z,990.69
2016-11-18T02:28:36.963Z,990.69
2016-11-18T02:29:17.458Z,990.63
2016-11-18T02:29:57.898Z,990.59
2016-11-18T02:30:38.391Z,990.61
2016-11-18T02:31:18.855Z,990.47
2016-11-18T02:31:59.425Z,990.44
2016-11-18T02:32:39.875Z,990.42
2016-11-18T02:33:20.360Z,990.52
2016-11-18T02:34:00.827Z,990.69
2016-11-18T02:34:41.320Z,990.83
2016-11-18T02:35:21.754Z,990.55
2016-11-18T02:36:02.219Z,990.51
2016-11-18T02:36:42.708Z,990.59
2016-11-18T02:37:23.208Z,990.53
2016-11-18T02:38:03.656Z,990.45
2016-11-18T02:38:44.104Z,990.51
2016-11-18T02:39:25.139Z,990.47
2016-11-18T02:40:05.617Z,990.39
2016-11-18T02:40:46.085Z,990.33
2016-11-18T02:41:26.554Z,990.35
2016-11-18T02:42:07.058Z,990.38
2016-11-18T02:42:47.530Z,990.43
2016-11-18T02:43:27.991Z,990.41
2016-11-18T02:44:08.457Z,990.36
2016-11-18T02:44:48.943Z,990.57
